sensor_id;sensor_type;location;lat;lon;timestamp;pressure;altitude;pressure_sealevel;temperature;humidity
3206;BME280;1615;53.602;11.418;2022-11-14T00:02:01;101958.22;;;10.87;100.00
3206;BME280;1615;53.602;11.418;2022-11-14T00:04:26;101948.38;;;10.91;100.00
3206;BME280;1615;53.602;11.418;2022-11-14T00:06:52;101945.63;;;10.91;100.00
3206;BME280;1615;53.602;11.418;2022-11-14T00:09:17;101945.13;;;10.94;100.00
3206;BME280;1615;53.602;11.418;2022-11-14T00:11:43;101939.06;;;10.92;100.00
3206;BME280;1615;53.602;11.418;2022-11-14T00:14:11;101786.09;;;10.01;100.00
3206;BME280;1615;53.602;11.418;2022-11-14T00:16:36;101930.28;;;10.90;100.00
3206;BME280;1615;53.602;11.418;2022-11-14T00:19:01;101927.50;;;10.85;100.00
3206;BME280;1615;53.602;11.418;2022-11-14T00:21:27;101897.25;;;10.70;100.00
3206;BME280;1615;53.602;11.418;2022-11-14T00:23:52;101926.38;;;10.81;100.00
3206;BME280;1615;53.602;11.418;2022-11-14T00:26:18;101917.03;;;10.77;100.00
3206;BME280;1615;53.602;11.418;2022-11-14T00:28:43;101929.13;;;10.81;100.00
3206;BME280;1615;53.602;11.418;2022-11-14T00:31:09;101920.88;;;10.76;100.00
3206;BME280;1615;53.602;11.418;2022-11-14T00:33:35;101925.78;;;10.69;100.00
3206;BME280;1615;53.602;11.418;2022-11-14T00:36:00;101917.03;;;10.77;100.00
3206;BME280;1615;53.602;11.418;2022-11-14T00:38:26;101912.09;;;10.74;100.00
3206;BME280;1615;53.602;11.418;2022-11-14T00:40:51;101897.28;;;10.75;100.00
3206;BME280;1615;53.602;11.418;2022-11-14T00:43:17;101906.03;;;10.67;100.00
3206;BME280;1615;53.602;11.418;2022-11-14T00:45:46;101901.63;;;10.71;100.00
3206;BME280;1615;53.602;11.418;2022-11-14T00:48:12;101832.31;;;10.29;100.00
3206;BME280;1615;53.602;11.418;2022-11-14T00:50:38;101906.06;;;10.77;100.00
3206;BME280;1615;53.602;11.418;2022-11-14T00:53:03;101902.25;;;10.78;100.00
3206;BME280;1615;53.602;11.418;2022-11-14T00:55:29;101855.44;;;10.43;100.00
3206;BME280;1615;53.602;11.418;2022-11-14T00:57:54;101897.56;;;10.78;100.00
3206;BME280;1615;53.602;11.418;2022-11-14T01:00:19;101895.09;;;10.77;100.00
3206;BME280;1615;53.602;11.418;2022-11-14T01:02:45;101901.69;;;10.81;100.00
3206;BME280;1615;53.602;11.418;2022-11-14T01:05:10;101889.56;;;10.67;100.00
3206;BME280;1615;53.602;11.418;2022-11-14T01:07:36;101885.72;;;10.68;100.00
3206;BME280;1615;53.602;11.418;2022-11-14T01:10:02;101887.94;;;10.71;100.00
3206;BME280;1615;53.602;11.418;2022-11-14T01:12:27;101886.84;;;10.77;100.00
3206;BME280;1615;53.602;11.418;2022-11-14T01:14:52;101880.53;;;10.71;100.00
3206;BME280;1615;53.602;11.418;2022-11-14T01:17:17;101875.88;;;10.72;100.00
3206;BME280;1615;53.602;11.418;2022-11-14T01:19:43;101876.41;;;10.69;100.00
3206;BME280;1615;53.602;11.418;2022-11-14T01:22:08;101872.00;;;10.63;100.00
3206;BME280;1615;53.602;11.418;2022-11-14T01:24:33;101869.78;;;10.60;100.00
3206;BME280;1615;53.602;11.418;2022-11-14T01:26:59;101842.25;;;10.45;100.00
3206;BME280;1615;53.602;11.418;2022-11-14T01:29:25;101864.88;;;10.62;100.00
3206;BME280;1615;53.602;11.418;2022-11-14T01:31:50;101856.94;;;10.65;100.00
3206;BME280;1615;53.602;11.418;2022-11-14T01:34:16;101856.66;;;10.67;100.00
3206;BME280;1615;53.602;11.418;2022-11-14T01:36:41;101811.56;;;10.43;100.00
3206;BME280;1615;53.602;11.418;2022-11-14T01:39:06;101801.66;;;10.37;100.00
3206;BME280;1615;53.602;11.418;2022-11-14T01:41:32;101847.06;;;10.74;100.00
3206;BME280;1615;53.602;11.418;2022-11-14T01:43:57;101808.34;;;10.51;100.00
3206;BME280;1615;53.602;11.418;2022-11-14T01:46:35;101849.00;;;10.74;100.00
3206;BME280;1615;53.602;11.418;2022-11-14T01:54:12;101728.91;;;10.09;100.00
3206;BME280;1615;53.602;11.418;2022-11-14T01:56:43;101824.31;;;10.74;100.00
3206;BME280;1615;53.602;11.418;2022-11-14T01:59:12;101822.69;;;10.73;100.00
3206;BME280;1615;53.602;11.418;2022-11-14T02:01:50;101799.56;;;10.59;100.00
3206;BME280;1615;53.602;11.418;2022-11-14T02:04:23;101721.53;;;10.15;100.00
3206;BME280;1615;53.602;11.418;2022-11-14T02:06:51;101813.31;;;10.69;100.00
3206;BME280;1615;53.602;11.418;2022-11-14T02:09:19;101807.81;;;10.64;100.00
3206;BME280;1615;53.602;11.418;2022-11-14T02:11:44;101756.69;;;10.33;100.00
3206;BME280;1615;53.602;11.418;2022-11-14T02:14:10;101808.91;;;10.58;100.00
3206;BME280;1615;53.602;11.418;2022-11-14T02:16:40;101805.63;;;10.56;100.00
3206;BME280;1615;53.602;11.418;2022-11-14T02:19:07;101793.25;;;10.53;100.00
3206;BME280;1615;53.602;11.418;2022-11-14T02:21:32;101440.31;;;8.41;100.00
3206;BME280;1615;53.602;11.418;2022-11-14T02:23:57;101783.66;;;10.51;100.00
3206;BME280;1615;53.602;11.418;2022-11-14T02:26:23;101681.34;;;9.84;100.00
3206;BME280;1615;53.602;11.418;2022-11-14T02:28:48;101788.56;;;10.49;100.00
3206;BME280;1615;53.602;11.418;2022-11-14T02:31:14;101771.00;;;10.45;100.00
3206;BME280;1615;53.602;11.418;2022-11-14T02:33:40;101770.41;;;10.38;100.00
3206;BME280;1615;53.602;11.418;2022-11-14T02:36:06;101753.88;;;10.18;100.00
3206;BME280;1615;53.602;11.418;2022-11-14T02:38:32;101736.34;;;10.14;100.00
3206;BME280;1615;53.602;11.418;2022-11-14T02:41:01;101766.53;;;10.24;100.00
3206;BME280;1615;53.602;11.418;2022-11-14T02:43:27;101765.38;;;10.15;100.00
3206;BME280;1615;53.602;11.418;2022-11-14T02:45:52;101779.13;;;10.20;100.00
3206;BME280;1615;53.602;11.418;2022-11-14T02:48:18;101766.50;;;10.19;100.00
3206;BME280;1615;53.602;11.418;2022-11-14T02:50:43;101751.72;;;10.20;100.00
3206;BME280;1615;53.602;11.418;2022-11-14T02:53:08;101753.63;;;10.24;100.00
3206;BME280;1615;53.602;11.418;2022-11-14T02:55:34;101758.88;;;10.26;100.00
3206;BME280;1615;53.602;11.418;2022-11-14T02:57:59;101757.25;;;10.30;100.00
3206;BME280;1615;53.602;11.418;2022-11-14T03:00:25;101749.53;;;10.27;100.00
3206;BME280;1615;53.602;11.418;2022-11-14T03:02:52;101739.44;;;10.32;100.00
3206;BME280;1615;53.602;11.418;2022-11-14T03:05:18;101744.09;;;10.32;100.00
3206;BME280;1615;53.602;11.418;2022-11-14T03:07:43;101738.59;;;10.32;100.00
3206;BME280;1615;53.602;11.418;2022-11-14T03:10:08;101736.13;;;10.30;100.00
3206;BME280;1615;53.602;11.418;2022-11-14T03:12:34;101688.56;;;10.00;100.00
3206;BME280;1615;53.602;11.418;2022-11-14T03:14:59;101723.25;;;10.26;100.00
3206;BME280;1615;53.602;11.418;2022-11-14T03:17:25;101717.75;;;10.26;100.00
3206;BME280;1615;53.602;11.418;2022-11-14T03:19:50;101720.22;;;10.22;100.00
3206;BME280;1615;53.602;11.418;2022-11-14T03:22:15;101712.75;;;10.13;100.00
3206;BME280;1615;53.602;11.418;2022-11-14T03:24:41;101712.47;;;10.09;100.00
3206;BME280;1615;53.602;11.418;2022-11-14T03:27:06;101704.78;;;10.06;100.00
3206;BME280;1615;53.602;11.418;2022-11-14T03:29:31;101701.75;;;10.03;100.00
3206;BME280;1615;53.602;11.418;2022-11-14T03:31:57;101640.19;;;9.69;100.00
3206;BME280;1615;53.602;11.418;2022-11-14T03:34:22;101695.75;;;10.06;100.00
3206;BME280;1615;53.602;11.418;2022-11-14T03:36:48;101698.75;;;10.04;100.00
3206;BME280;1615;53.602;11.418;2022-11-14T03:39:13;101685.28;;;9.98;100.00
3206;BME280;1615;53.602;11.418;2022-11-14T03:41:38;101703.84;;;9.91;100.00
3206;BME280;1615;53.602;11.418;2022-11-14T03:44:04;101684.66;;;9.86;100.00
3206;BME280;1615;53.602;11.418;2022-11-14T03:46:29;101687.66;;;9.84;100.00
3206;BME280;1615;53.602;11.418;2022-11-14T03:48:54;101683.81;;;9.80;100.00
3206;BME280;1615;53.602;11.418;2022-11-14T03:51:20;101687.81;;;9.63;100.00
3206;BME280;1615;53.602;11.418;2022-11-14T03:53:45;101637.25;;;9.29;100.00
3206;BME280;1615;53.602;11.418;2022-11-14T03:56:10;101683.44;;;9.62;100.00
3206;BME280;1615;53.602;11.418;2022-11-14T03:58:36;101679.09;;;9.66;100.00
3206;BME280;1615;53.602;11.418;2022-11-14T04:01:01;101678.53;;;9.69;100.00
3206;BME280;1615;53.602;11.418;2022-11-14T04:03:27;101686.22;;;9.72;100.00
3206;BME280;1615;53.602;11.418;2022-11-14T04:05:53;101682.13;;;9.74;100.00
3206;BME280;1615;53.602;11.418;2022-11-14T04:08:18;101635.13;;;9.41;100.00
3206;BME280;1615;53.602;11.418;2022-11-14T04:10:46;101663.75;;;9.70;100.00
3206;BME280;1615;53.602;11.418;2022-11-14T04:13:12;101676.38;;;9.71;100.00
3206;BME280;1615;53.602;11.418;2022-11-14T04:15:37;101677.19;;;9.71;100.00
3206;BME280;1615;53.602;11.418;2022-11-14T04:18:03;101681.25;;;9.64;100.00
3206;BME280;1615;53.602;11.418;2022-11-14T04:20:28;101684.56;;;9.66;100.00
3206;BME280;1615;53.602;11.418;2022-11-14T04:22:53;101679.09;;;9.66;100.00
3206;BME280;1615;53.602;11.418;2022-11-14T04:25:19;101670.22;;;9.54;100.00
3206;BME280;1615;53.602;11.418;2022-11-14T04:27:44;101658.31;;;9.33;100.00
3206;BME280;1615;53.602;11.418;2022-11-14T04:30:10;101664.63;;;9.34;100.00
3206;BME280;1615;53.602;11.418;2022-11-14T04:32:35;101648.72;;;9.31;100.00
3206;BME280;1615;53.602;11.418;2022-11-14T04:35:01;101512.25;;;8.51;100.00
3206;BME280;1615;53.602;11.418;2022-11-14T04:37:26;101657.44;;;9.23;100.00
3206;BME280;1615;53.602;11.418;2022-11-14T04:39:51;101653.91;;;9.27;100.00
3206;BME280;1615;53.602;11.418;2022-11-14T04:42:17;101638.84;;;9.25;100.00
3206;BME280;1615;53.602;11.418;2022-11-14T04:44:42;101583.31;;;8.88;100.00
3206;BME280;1615;53.602;11.418;2022-11-14T04:47:08;101652.56;;;9.30;100.00
3206;BME280;1615;53.602;11.418;2022-11-14T04:49:33;101644.31;;;9.25;100.00
3206;BME280;1615;53.602;11.418;2022-11-14T04:51:58;101651.97;;;9.23;100.00
3206;BME280;1615;53.602;11.418;2022-11-14T04:54:23;101651.53;;;9.41;100.00
3206;BME280;1615;53.602;11.418;2022-11-14T04:56:49;101643.25;;;9.31;100.00
3206;BME280;1615;53.602;11.418;2022-11-14T04:59:14;101646.53;;;9.33;100.00
3206;BME280;1615;53.602;11.418;2022-11-14T05:01:40;101592.41;;;8.93;100.00
3206;BME280;1615;53.602;11.418;2022-11-14T05:04:05;101614.69;;;9.17;100.00
3206;BME280;1615;53.602;11.418;2022-11-14T05:06:30;101646.56;;;9.38;100.00
3206;BME280;1615;53.602;11.418;2022-11-14T05:08:56;101639.44;;;9.32;100.00
3206;BME280;1615;53.602;11.418;2022-11-14T05:11:21;101639.44;;;9.32;100.00
3206;BME280;1615;53.602;11.418;2022-11-14T05:13:47;101529.03;;;8.65;100.00
3206;BME280;1615;53.602;11.418;2022-11-14T05:16:12;101633.97;;;9.32;100.00
3206;BME280;1615;53.602;11.418;2022-11-14T05:18:38;101531.03;;;8.79;100.00
3206;BME280;1615;53.602;11.418;2022-11-14T05:21:04;101626.91;;;9.41;100.00
3206;BME280;1615;53.602;11.418;2022-11-14T05:23:30;101628.09;;;9.55;100.00
3206;BME280;1615;53.602;11.418;2022-11-14T05:25:59;101623.56;;;9.29;100.00
3206;BME280;1615;53.602;11.418;2022-11-14T05:28:24;101590.00;;;9.02;100.00
3206;BME280;1615;53.602;11.418;2022-11-14T05:30:50;101616.38;;;9.18;100.00
3206;BME280;1615;53.602;11.418;2022-11-14T05:33:15;101606.50;;;9.17;100.00
3206;BME280;1615;53.602;11.418;2022-11-14T05:35:40;101541.94;;;8.74;100.00
3206;BME280;1615;53.602;11.418;2022-11-14T05:38:06;101604.00;;;9.10;100.00
3206;BME280;1615;53.602;11.418;2022-11-14T05:40:31;101600.69;;;9.08;100.00
3206;BME280;1615;53.602;11.418;2022-11-14T05:42:56;101572.50;;;9.03;100.00
3206;BME280;1615;53.602;11.418;2022-11-14T05:45:21;101586.03;;;9.24;100.00
3206;BME280;1615;53.602;11.418;2022-11-14T05:47:47;101594.00;;;9.31;100.00
3206;BME280;1615;53.602;11.418;2022-11-14T05:50:12;101598.28;;;9.17;100.00
3206;BME280;1615;53.602;11.418;2022-11-14T05:52:37;101597.72;;;9.15;100.00
3206;BME280;1615;53.602;11.418;2022-11-14T05:55:03;101596.56;;;9.06;100.00
3206;BME280;1615;53.602;11.418;2022-11-14T05:57:29;101593.28;;;9.04;100.00
3206;BME280;1615;53.602;11.418;2022-11-14T05:59:55;101498.22;;;8.38;100.00
3206;BME280;1615;53.602;11.418;2022-11-14T06:02:21;101511.88;;;8.38;100.00
3206;BME280;1615;53.602;11.418;2022-11-14T06:04:46;101595.47;;;9.02;100.00
3206;BME280;1615;53.602;11.418;2022-11-14T06:07:12;101252.28;;;6.87;100.00
3206;BME280;1615;53.602;11.418;2022-11-14T06:09:37;101597.06;;;8.98;100.00
3206;BME280;1615;53.602;11.418;2022-11-14T06:12:03;101508.34;;;8.42;100.00
3206;BME280;1615;53.602;11.418;2022-11-14T06:14:30;101598.47;;;9.00;100.00
3206;BME280;1615;53.602;11.418;2022-11-14T06:16:55;101600.34;;;9.00;100.00
3206;BME280;1615;53.602;11.418;2022-11-14T06:19:21;101598.16;;;8.97;100.00
3206;BME280;1615;53.602;11.418;2022-11-14T06:21:46;101601.50;;;9.04;100.00
3206;BME280;1615;53.602;11.418;2022-11-14T06:24:11;101607.50;;;9.06;100.00
3206;BME280;1615;53.602;11.418;2022-11-14T06:26:36;101605.91;;;9.10;100.00
3206;BME280;1615;53.602;11.418;2022-11-14T06:29:02;101615.50;;;9.12;100.00
3206;BME280;1615;53.602;11.418;2022-11-14T06:31:27;101582.81;;;8.91;100.00
3206;BME280;1615;53.602;11.418;2022-11-14T06:33:54;101646.44;;;9.13;100.00
3206;BME280;1615;53.602;11.418;2022-11-14T06:36:21;101621.13;;;8.96;100.00
3206;BME280;1615;53.602;11.418;2022-11-14T06:38:46;101511.16;;;8.21;100.00
3206;BME280;1615;53.602;11.418;2022-11-14T06:41:14;101625.50;;;8.97;100.00
3206;BME280;1615;53.602;11.418;2022-11-14T06:43:41;101614.50;;;8.87;100.00
3206;BME280;1615;53.602;11.418;2022-11-14T06:46:08;101602.41;;;8.83;100.00
3206;BME280;1615;53.602;11.418;2022-11-14T06:48:35;101623.34;;;8.99;100.00
3206;BME280;1615;53.602;11.418;2022-11-14T06:51:01;101584.78;;;8.69;100.00
3206;BME280;1615;53.602;11.418;2022-11-14T06:53:28;101622.50;;;8.98;100.00
3206;BME280;1615;53.602;11.418;2022-11-14T06:55:59;101602.97;;;8.80;100.00
3206;BME280;1615;53.602;11.418;2022-11-14T06:58:27;101630.09;;;8.91;100.00
3206;BME280;1615;53.602;11.418;2022-11-14T07:00:53;101500.09;;;8.06;100.00
3206;BME280;1615;53.602;11.418;2022-11-14T07:03:18;101630.34;;;8.90;100.00
3206;BME280;1615;53.602;11.418;2022-11-14T07:05:43;101623.22;;;8.84;100.00
3206;BME280;1615;53.602;11.418;2022-11-14T07:08:09;101634.09;;;8.79;100.00
3206;BME280;1615;53.602;11.418;2022-11-14T07:10:34;101617.69;;;8.79;100.00
3206;BME280;1615;53.602;11.418;2022-11-14T07:13:00;101638.75;;;8.78;100.00
3206;BME280;1615;53.602;11.418;2022-11-14T07:15:25;101618.78;;;8.78;100.00
3206;BME280;1615;53.602;11.418;2022-11-14T07:17:50;101622.06;;;8.75;100.00
3206;BME280;1615;53.602;11.418;2022-11-14T07:20:16;101627.31;;;8.86;100.00
3206;BME280;1615;53.602;11.418;2022-11-14T07:22:45;101622.19;;;8.95;100.00
3206;BME280;1615;53.602;11.418;2022-11-14T07:25:11;101631.28;;;9.00;100.00
3206;BME280;1615;53.602;11.418;2022-11-14T07:27:36;101613.56;;;9.08;100.00
3206;BME280;1615;53.602;11.418;2022-11-14T07:30:02;101526.47;;;8.53;100.00
3206;BME280;1615;53.602;11.418;2022-11-14T07:32:28;101615.47;;;9.07;100.00
3206;BME280;1615;53.602;11.418;2022-11-14T07:34:54;101617.44;;;9.12;100.00
3206;BME280;1615;53.602;11.418;2022-11-14T07:37:20;101621.28;;;9.21;100.00
3206;BME280;1615;53.602;11.418;2022-11-14T07:39:45;101599.66;;;9.19;100.00
3206;BME280;1615;53.602;11.418;2022-11-14T07:42:11;101605.75;;;9.26;100.00
3206;BME280;1615;53.602;11.418;2022-11-14T07:44:36;101604.88;;;9.21;100.00
3206;BME280;1615;53.602;11.418;2022-11-14T07:47:01;101603.31;;;9.30;100.00
3206;BME280;1615;53.602;11.418;2022-11-14T07:49:27;101592.66;;;9.33;100.00
3206;BME280;1615;53.602;11.418;2022-11-14T07:51:52;101554.00;;;9.20;100.00
3206;BME280;1615;53.602;11.418;2022-11-14T07:54:17;101587.00;;;9.50;100.00
3206;BME280;1615;53.602;11.418;2022-11-14T07:56:43;101580.44;;;9.51;100.00
3206;BME280;1615;53.602;11.418;2022-11-14T07:59:08;101583.75;;;9.58;100.00
3206;BME280;1615;53.602;11.418;2022-11-14T08:01:33;101568.34;;;9.42;100.00
3206;BME280;1615;53.602;11.418;2022-11-14T08:03:59;101580.75;;;9.59;100.00
3206;BME280;1615;53.602;11.418;2022-11-14T08:06:25;101556.63;;;9.51;100.00
3206;BME280;1615;53.602;11.418;2022-11-14T08:08:50;101583.28;;;9.71;100.00
3206;BME280;1615;53.602;11.418;2022-11-14T08:11:15;101578.31;;;9.68;100.00
3206;BME280;1615;53.602;11.418;2022-11-14T08:14:00;101580.00;;;9.79;100.00
3206;BME280;1615;53.602;11.418;2022-11-14T08:16:26;101508.72;;;9.44;100.00
3206;BME280;1615;53.602;11.418;2022-11-14T08:18:51;101568.56;;;9.92;100.00
3206;BME280;1615;53.602;11.418;2022-11-14T08:21:16;101574.06;;;10.02;100.00
3206;BME280;1615;53.602;11.418;2022-11-14T08:23:42;101572.47;;;10.11;100.00
3206;BME280;1615;53.602;11.418;2022-11-14T08:26:09;101574.94;;;10.12;100.00
3206;BME280;1615;53.602;11.418;2022-11-14T08:28:34;101572.47;;;10.11;100.00
3206;BME280;1615;53.602;11.418;2022-11-14T08:31:00;101540.09;;;9.93;100.00
3206;BME280;1615;53.602;11.418;2022-11-14T08:33:26;101575.22;;;10.16;100.00
3206;BME280;1615;53.602;11.418;2022-11-14T08:35:52;101444.41;;;9.41;100.00
3206;BME280;1615;53.602;11.418;2022-11-14T08:38:17;101474.31;;;9.73;100.00
3206;BME280;1615;53.602;11.418;2022-11-14T08:40:42;101561.53;;;10.21;100.00
3206;BME280;1615;53.602;11.418;2022-11-14T08:43:08;101559.91;;;10.20;100.00
3206;BME280;1615;53.602;11.418;2022-11-14T08:45:35;101532.41;;;9.90;100.00
3206;BME280;1615;53.602;11.418;2022-11-14T08:48:00;101535.75;;;10.12;100.00
3206;BME280;1615;53.602;11.418;2022-11-14T08:50:25;101565.41;;;10.30;100.00
3206;BME280;1615;53.602;11.418;2022-11-14T08:52:51;101525.38;;;10.14;100.00
3206;BME280;1615;53.602;11.418;2022-11-14T08:55:17;101564.31;;;10.36;100.00
3206;BME280;1615;53.602;11.418;2022-11-14T08:57:43;101500.69;;;10.04;100.00
3206;BME280;1615;53.602;11.418;2022-11-14T09:00:09;101567.31;;;10.44;100.00
3206;BME280;1615;53.602;11.418;2022-11-14T09:02:34;101567.59;;;10.43;100.00
3206;BME280;1615;53.602;11.418;2022-11-14T09:05:00;101570.88;;;10.50;100.00
3206;BME280;1615;53.602;11.418;2022-11-14T09:07:25;101560.22;;;10.53;100.00
3206;BME280;1615;53.602;11.418;2022-11-14T09:09:51;101553.34;;;10.61;100.00
3206;BME280;1615;53.602;11.418;2022-11-14T09:12:16;101552.25;;;10.62;100.00
3206;BME280;1615;53.602;11.418;2022-11-14T09:14:42;101554.72;;;10.63;100.00
3206;BME280;1615;53.602;11.418;2022-11-14T09:17:07;101555.81;;;10.57;100.00
3206;BME280;1615;53.602;11.418;2022-11-14T09:19:32;101558.28;;;10.59;100.00
3206;BME280;1615;53.602;11.418;2022-11-14T09:21:58;101558.56;;;10.62;100.00
3206;BME280;1615;53.602;11.418;2022-11-14T09:24:23;101542.38;;;10.66;100.00
3206;BME280;1615;53.602;11.418;2022-11-14T09:26:50;101495.22;;;10.44;100.00
3206;BME280;1615;53.602;11.418;2022-11-14T09:29:16;101550.59;;;10.81;100.00
3206;BME280;1615;53.602;11.418;2022-11-14T09:31:43;101538.53;;;10.77;100.00
3206;BME280;1615;53.602;11.418;2022-11-14T09:34:09;101546.22;;;10.75;100.00
3206;BME280;1615;53.602;11.418;2022-11-14T09:36:34;101545.38;;;10.74;100.00
3206;BME280;1615;53.602;11.418;2022-11-14T09:38:59;101540.19;;;10.73;100.00
3206;BME280;1615;53.602;11.418;2022-11-14T09:41:36;101539.63;;;10.71;100.00
3206;BME280;1615;53.602;11.418;2022-11-14T09:46:40;101541.25;;;10.82;100.00
3206;BME280;1615;53.602;11.418;2022-11-14T09:49:34;101539.88;;;10.94;100.00
3206;BME280;1615;53.602;11.418;2022-11-14T09:52:13;101528.09;;;10.94;100.00
3206;BME280;1615;53.602;11.418;2022-11-14T09:54:56;101515.75;;;10.91;100.00
3206;BME280;1615;53.602;11.418;2022-11-14T09:57:22;101497.38;;;10.82;100.00
3206;BME280;1615;53.602;11.418;2022-11-14T09:59:48;101511.63;;;10.94;100.00
3206;BME280;1615;53.602;11.418;2022-11-14T10:02:36;101507.25;;;10.88;100.00
3206;BME280;1615;53.602;11.418;2022-11-14T10:10:37;101500.09;;;10.97;100.00
3206;BME280;1615;53.602;11.418;2022-11-14T10:13:43;101499.81;;;10.93;100.00
3206;BME280;1615;53.602;11.418;2022-11-14T10:19:38;101490.16;;;11.21;100.00
3206;BME280;1615;53.602;11.418;2022-11-14T10:22:20;101463.84;;;11.15;100.00
3206;BME280;1615;53.602;11.418;2022-11-14T10:30:17;101471.16;;;11.34;100.00
3206;BME280;1615;53.602;11.418;2022-11-14T10:35:42;101465.06;;;11.42;100.00
3206;BME280;1615;53.602;11.418;2022-11-14T10:38:33;101462.56;;;11.51;100.00
3206;BME280;1615;53.602;11.418;2022-11-14T10:41:01;101459.25;;;11.54;100.00
3206;BME280;1615;53.602;11.418;2022-11-14T10:43:45;101465.28;;;11.56;100.00
3206;BME280;1615;53.602;11.418;2022-11-14T10:46:25;101465.31;;;11.51;100.00
3206;BME280;1615;53.602;11.418;2022-11-14T10:48:51;101446.97;;;11.41;100.00
3206;BME280;1615;53.602;11.418;2022-11-14T10:53:52;101438.94;;;11.60;100.00
3206;BME280;1615;53.602;11.418;2022-11-14T10:56:19;101428.97;;;11.74;100.00
3206;BME280;1615;53.602;11.418;2022-11-14T10:58:44;101282.53;;;11.01;100.00
3206;BME280;1615;53.602;11.418;2022-11-14T11:01:38;101414.47;;;12.02;100.00
3206;BME280;1615;53.602;11.418;2022-11-14T11:04:33;101414.47;;;12.02;100.00
3206;BME280;1615;53.602;11.418;2022-11-14T11:09:33;101383.75;;;11.95;100.00
3206;BME280;1615;53.602;11.418;2022-11-14T11:12:39;101401.16;;;12.14;100.00
3206;BME280;1615;53.602;11.418;2022-11-14T11:15:20;101399.28;;;12.09;100.00
3206;BME280;1615;53.602;11.418;2022-11-14T11:17:56;101386.47;;;12.00;100.00
3206;BME280;1615;53.602;11.418;2022-11-14T11:22:47;101389.38;;;12.13;100.00
3206;BME280;1615;53.602;11.418;2022-11-14T11:25:33;101387.47;;;12.09;100.00
3206;BME280;1615;53.602;11.418;2022-11-14T11:28:10;101385.50;;;12.14;100.00
3206;BME280;1615;53.602;11.418;2022-11-14T11:30:37;101378.09;;;12.10;100.00
3206;BME280;1615;53.602;11.418;2022-11-14T11:35:54;101354.00;;;12.02;100.00
3206;BME280;1615;53.602;11.418;2022-11-14T11:38:22;101267.00;;;11.64;100.00
3206;BME280;1615;53.602;11.418;2022-11-14T11:40:50;101371.06;;;12.27;100.00
3206;BME280;1615;53.602;11.418;2022-11-14T11:46:05;101350.34;;;12.40;100.00
3206;BME280;1615;53.602;11.418;2022-11-14T11:48:37;101367.53;;;12.50;100.00
3206;BME280;1615;53.602;11.418;2022-11-14T11:51:05;101357.13;;;12.47;100.00
3206;BME280;1615;53.602;11.418;2022-11-14T11:53:35;101348.06;;;12.47;100.00
3206;BME280;1615;53.602;11.418;2022-11-14T11:56:10;101341.31;;;12.58;100.00
3206;BME280;1615;53.602;11.418;2022-11-14T11:58:47;101338.75;;;12.66;100.00
3206;BME280;1615;53.602;11.418;2022-11-14T12:01:14;101334.00;;;12.72;100.00
3206;BME280;1615;53.602;11.418;2022-11-14T12:03:51;101335.72;;;12.68;100.00
3206;BME280;1615;53.602;11.418;2022-11-14T12:06:28;101328.56;;;12.67;100.00
3206;BME280;1615;53.602;11.418;2022-11-14T12:09:18;101328.09;;;12.83;100.00
3206;BME280;1615;53.602;11.418;2022-11-14T12:11:48;101342.59;;;12.89;100.00
3206;BME280;1615;53.602;11.418;2022-11-14T12:14:52;101334.06;;;12.67;100.00
3206;BME280;1615;53.602;11.418;2022-11-14T12:25:45;101301.88;;;12.91;100.00
3206;BME280;1615;53.602;11.418;2022-11-14T12:27:58;101315.91;;;12.89;100.00
3206;BME280;1615;53.602;11.418;2022-11-14T12:30:29;101287.81;;;12.69;100.00
3206;BME280;1615;53.602;11.418;2022-11-14T12:35:29;101313.44;;;12.88;100.00
3206;BME280;1615;53.602;11.418;2022-11-14T12:37:56;101387.66;;;12.98;100.00
3206;BME280;1615;53.602;11.418;2022-11-14T12:40:32;101297.88;;;13.02;100.00
3206;BME280;1615;53.602;11.418;2022-11-14T12:43:00;101305.25;;;13.06;100.00
3206;BME280;1615;53.602;11.418;2022-11-14T12:48:20;101301.38;;;13.07;100.00
3206;BME280;1615;53.602;11.418;2022-11-14T12:50:46;101261.16;;;12.88;100.00
3206;BME280;1615;53.602;11.418;2022-11-14T13:09:31;101279.72;;;13.01;100.00
3206;BME280;1615;53.602;11.418;2022-11-14T13:12:25;101285.91;;;13.11;100.00
3206;BME280;1615;53.602;11.418;2022-11-14T13:15:31;101285.81;;;12.98;100.00
3206;BME280;1615;53.602;11.418;2022-11-14T13:21:25;101297.88;;;13.02;100.00
3206;BME280;1615;53.602;11.418;2022-11-14T13:24:10;101292.97;;;12.99;100.00
3206;BME280;1615;53.602;11.418;2022-11-14T13:26:38;101260.72;;;12.81;100.00
3206;BME280;1615;53.602;11.418;2022-11-14T13:29:03;101280.31;;;12.98;100.00
3206;BME280;1615;53.602;11.418;2022-11-14T13:33:57;101280.19;;;13.08;100.00
3206;BME280;1615;53.602;11.418;2022-11-14T13:36:49;101291.78;;;13.05;100.00
3206;BME280;1615;53.602;11.418;2022-11-14T13:39:33;101296.31;;;13.14;100.00
3206;BME280;1615;53.602;11.418;2022-11-14T13:49:36;101281.22;;;13.12;100.00
3206;BME280;1615;53.602;11.418;2022-11-14T13:52:05;101239.44;;;12.86;100.00
3206;BME280;1615;53.602;11.418;2022-11-14T13:54:30;101268.13;;;13.04;100.00
3206;BME280;1615;53.602;11.418;2022-11-14T13:57:13;101279.00;;;13.14;100.00
3206;BME280;1615;53.602;11.418;2022-11-14T13:59:59;101263.66;;;13.08;100.00
3206;BME280;1615;53.602;11.418;2022-11-14T14:02:55;101248.97;;;12.94;100.00
3206;BME280;1615;53.602;11.418;2022-11-14T14:05:30;101257.13;;;13.04;100.00
3206;BME280;1615;53.602;11.418;2022-11-14T14:14:01;101234.69;;;12.73;100.00
3206;BME280;1615;53.602;11.418;2022-11-14T14:16:44;101109.16;;;12.03;100.00
3206;BME280;1615;53.602;11.418;2022-11-14T14:19:48;101247.34;;;12.93;100.00
3206;BME280;1615;53.602;11.418;2022-11-14T14:22:25;101249.16;;;12.79;100.00
3206;BME280;1615;53.602;11.418;2022-11-14T14:25:02;101188.78;;;12.32;100.00
3206;BME280;1615;53.602;11.418;2022-11-14T14:27:33;101242.72;;;12.70;100.00
3206;BME280;1615;53.602;11.418;2022-11-14T14:30:03;101238.97;;;12.61;100.00